sensor_id;sensor_type;location;lat;lon;timestamp;P1;durP1;ratioP1;P2;durP2;ratioP2
3443;SDS011;1736;52.068;6.968;2023-08-01T00:01:46;4.53;;;3.40;;
3443;SDS011;1736;52.068;6.968;2023-08-01T00:04:13;3.30;;;2.97;;
3443;SDS011;1736;52.068;6.968;2023-08-01T00:06:41;3.60;;;2.97;;
3443;SDS011;1736;52.068;6.968;2023-08-01T00:09:07;3.50;;;2.90;;
3443;SDS011;1736;52.068;6.968;2023-08-01T00:11:34;5.60;;;3.73;;
3443;SDS011;1736;52.068;6.968;2023-08-01T00:14:00;4.07;;;3.67;;
3443;SDS011;1736;52.068;6.968;2023-08-01T00:16:27;4.03;;;3.50;;
3443;SDS011;1736;52.068;6.968;2023-08-01T00:18:54;4.07;;;3.67;;
3443;SDS011;1736;52.068;6.968;2023-08-01T00:21:21;4.10;;;3.40;;
3443;SDS011;1736;52.068;6.968;2023-08-01T00:23:49;7.30;;;3.60;;
3443;SDS011;1736;52.068;6.968;2023-08-01T00:26:17;6.40;;;3.60;;
3443;SDS011;1736;52.068;6.968;2023-08-01T00:28:43;8.50;;;4.10;;
3443;SDS011;1736;52.068;6.968;2023-08-01T00:31:10;4.40;;;4.00;;
3443;SDS011;1736;52.068;6.968;2023-08-01T00:33:36;8.23;;;4.17;;
3443;SDS011;1736;52.068;6.968;2023-08-01T00:36:03;5.50;;;4.13;;
3443;SDS011;1736;52.068;6.968;2023-08-01T00:38:34;8.50;;;4.60;;
3443;SDS011;1736;52.068;6.968;2023-08-01T00:41:02;5.13;;;4.33;;
3443;SDS011;1736;52.068;6.968;2023-08-01T00:43:28;5.97;;;4.60;;
3443;SDS011;1736;52.068;6.968;2023-08-01T00:45:55;9.93;;;5.20;;
3443;SDS011;1736;52.068;6.968;2023-08-01T00:48:25;8.20;;;5.00;;
3443;SDS011;1736;52.068;6.968;2023-08-01T00:50:52;7.23;;;4.77;;
3443;SDS011;1736;52.068;6.968;2023-08-01T00:53:21;7.00;;;4.87;;
3443;SDS011;1736;52.068;6.968;2023-08-01T00:55:48;8.13;;;5.23;;
3443;SDS011;1736;52.068;6.968;2023-08-01T00:58:17;5.60;;;4.50;;
3443;SDS011;1736;52.068;6.968;2023-08-01T01:00:44;6.23;;;4.67;;
3443;SDS011;1736;52.068;6.968;2023-08-01T01:03:10;5.73;;;4.70;;
3443;SDS011;1736;52.068;6.968;2023-08-01T01:05:38;10.43;;;5.30;;
3443;SDS011;1736;52.068;6.968;2023-08-01T01:08:07;8.83;;;5.40;;
3443;SDS011;1736;52.068;6.968;2023-08-01T01:10:34;7.27;;;5.80;;
3443;SDS011;1736;52.068;6.968;2023-08-01T01:13:01;7.57;;;6.27;;
3443;SDS011;1736;52.068;6.968;2023-08-01T01:15:29;9.93;;;5.83;;
3443;SDS011;1736;52.068;6.968;2023-08-01T01:17:56;7.97;;;5.30;;
3443;SDS011;1736;52.068;6.968;2023-08-01T01:20:24;9.40;;;6.07;;
3443;SDS011;1736;52.068;6.968;2023-08-01T01:22:52;13.63;;;5.80;;
3443;SDS011;1736;52.068;6.968;2023-08-01T01:25:21;8.63;;;6.77;;
3443;SDS011;1736;52.068;6.968;2023-08-01T01:27:49;8.00;;;6.23;;
3443;SDS011;1736;52.068;6.968;2023-08-01T01:30:19;17.20;;;6.50;;
3443;SDS011;1736;52.068;6.968;2023-08-01T01:32:46;7.17;;;5.43;;
3443;SDS011;1736;52.068;6.968;2023-08-01T01:35:14;11.07;;;7.23;;
3443;SDS011;1736;52.068;6.968;2023-08-01T01:37:40;8.03;;;6.50;;
3443;SDS011;1736;52.068;6.968;2023-08-01T01:40:09;9.73;;;6.27;;
3443;SDS011;1736;52.068;6.968;2023-08-01T01:42:36;16.43;;;6.87;;
3443;SDS011;1736;52.068;6.968;2023-08-01T01:45:03;10.90;;;7.03;;
3443;SDS011;1736;52.068;6.968;2023-08-01T01:47:30;9.87;;;6.70;;
3443;SDS011;1736;52.068;6.968;2023-08-01T01:49:57;9.23;;;6.70;;
3443;SDS011;1736;52.068;6.968;2023-08-01T01:52:24;12.90;;;7.47;;
3443;SDS011;1736;52.068;6.968;2023-08-01T01:54:50;14.43;;;7.00;;
3443;SDS011;1736;52.068;6.968;2023-08-01T01:57:18;11.77;;;7.37;;
3443;SDS011;1736;52.068;6.968;2023-08-01T01:59:45;10.93;;;7.70;;
3443;SDS011;1736;52.068;6.968;2023-08-01T02:02:11;12.00;;;7.70;;
3443;SDS011;1736;52.068;6.968;2023-08-01T02:04:38;13.20;;;8.27;;
3443;SDS011;1736;52.068;6.968;2023-08-01T02:07:05;12.87;;;8.33;;
3443;SDS011;1736;52.068;6.968;2023-08-01T02:09:32;10.33;;;7.50;;
3443;SDS011;1736;52.068;6.968;2023-08-01T02:11:58;10.43;;;7.30;;
3443;SDS011;1736;52.068;6.968;2023-08-01T02:14:26;15.03;;;7.60;;
3443;SDS011;1736;52.068;6.968;2023-08-01T02:16:53;16.43;;;7.70;;
3443;SDS011;1736;52.068;6.968;2023-08-01T02:19:20;12.20;;;7.80;;
3443;SDS011;1736;52.068;6.968;2023-08-01T02:21:46;14.27;;;8.40;;
3443;SDS011;1736;52.068;6.968;2023-08-01T02:24:13;11.37;;;8.17;;
3443;SDS011;1736;52.068;6.968;2023-08-01T02:26:40;14.70;;;7.50;;
3443;SDS011;1736;52.068;6.968;2023-08-01T02:29:06;9.57;;;7.33;;
3443;SDS011;1736;52.068;6.968;2023-08-01T02:31:34;15.23;;;8.70;;
3443;SDS011;1736;52.068;6.968;2023-08-01T02:34:01;12.43;;;7.80;;
3443;SDS011;1736;52.068;6.968;2023-08-01T02:36:28;13.50;;;7.87;;
3443;SDS011;1736;52.068;6.968;2023-08-01T02:38:55;12.80;;;8.50;;
3443;SDS011;1736;52.068;6.968;2023-08-01T02:41:21;11.43;;;6.40;;
3443;SDS011;1736;52.068;6.968;2023-08-01T02:43:48;13.63;;;7.90;;
3443;SDS011;1736;52.068;6.968;2023-08-01T02:46:15;13.60;;;7.50;;
3443;SDS011;1736;52.068;6.968;2023-08-01T02:48:43;12.90;;;6.67;;
3443;SDS011;1736;52.068;6.968;2023-08-01T02:51:09;12.03;;;7.60;;
3443;SDS011;1736;52.068;6.968;2023-08-01T02:53:36;14.73;;;6.83;;
3443;SDS011;1736;52.068;6.968;2023-08-01T02:56:05;12.27;;;6.83;;
3443;SDS011;1736;52.068;6.968;2023-08-01T02:58:33;12.23;;;6.40;;
3443;SDS011;1736;52.068;6.968;2023-08-01T03:01:00;11.00;;;6.30;;
3443;SDS011;1736;52.068;6.968;2023-08-01T03:03:27;10.20;;;6.40;;
3443;SDS011;1736;52.068;6.968;2023-08-01T03:05:55;9.30;;;6.30;;
3443;SDS011;1736;52.068;6.968;2023-08-01T03:08:22;14.60;;;7.13;;
3443;SDS011;1736;52.068;6.968;2023-08-01T03:10:48;12.90;;;7.30;;
3443;SDS011;1736;52.068;6.968;2023-08-01T03:13:15;10.63;;;7.00;;
3443;SDS011;1736;52.068;6.968;2023-08-01T03:15:41;11.10;;;6.40;;
3443;SDS011;1736;52.068;6.968;2023-08-01T03:18:08;11.00;;;6.73;;
3443;SDS011;1736;52.068;6.968;2023-08-01T03:20:34;12.63;;;7.03;;
3443;SDS011;1736;52.068;6.968;2023-08-01T03:23:03;9.60;;;7.50;;
3443;SDS011;1736;52.068;6.968;2023-08-01T03:25:30;12.03;;;6.93;;
3443;SDS011;1736;52.068;6.968;2023-08-01T03:27:57;16.60;;;6.73;;
3443;SDS011;1736;52.068;6.968;2023-08-01T03:30:23;11.47;;;6.90;;
3443;SDS011;1736;52.068;6.968;2023-08-01T03:32:51;13.10;;;7.23;;
3443;SDS011;1736;52.068;6.968;2023-08-01T03:35:17;13.27;;;6.77;;
3443;SDS011;1736;52.068;6.968;2023-08-01T03:37:44;17.80;;;7.20;;
3443;SDS011;1736;52.068;6.968;2023-08-01T03:40:12;9.40;;;6.47;;
3443;SDS011;1736;52.068;6.968;2023-08-01T03:42:39;7.80;;;6.10;;
3443;SDS011;1736;52.068;6.968;2023-08-01T03:45:07;15.03;;;6.33;;
3443;SDS011;1736;52.068;6.968;2023-08-01T03:47:35;14.43;;;7.10;;
3443;SDS011;1736;52.068;6.968;2023-08-01T03:50:02;11.47;;;7.30;;
3443;SDS011;1736;52.068;6.968;2023-08-01T03:52:29;10.87;;;6.93;;
3443;SDS011;1736;52.068;6.968;2023-08-01T03:54:55;20.13;;;7.60;;
3443;SDS011;1736;52.068;6.968;2023-08-01T03:57:23;15.70;;;8.17;;
3443;SDS011;1736;52.068;6.968;2023-08-01T03:59:50;17.00;;;7.90;;
3443;SDS011;1736;52.068;6.968;2023-08-01T04:02:17;19.03;;;8.10;;
3443;SDS011;1736;52.068;6.968;2023-08-01T04:04:44;14.17;;;8.13;;
3443;SDS011;1736;52.068;6.968;2023-08-01T04:07:11;17.43;;;8.13;;
3443;SDS011;1736;52.068;6.968;2023-08-01T04:09:38;14.03;;;7.77;;
3443;SDS011;1736;52.068;6.968;2023-08-01T04:12:05;15.53;;;7.47;;
3443;SDS011;1736;52.068;6.968;2023-08-01T04:14:34;14.50;;;8.27;;
3443;SDS011;1736;52.068;6.968;2023-08-01T04:17:00;15.27;;;8.03;;
3443;SDS011;1736;52.068;6.968;2023-08-01T04:19:27;15.83;;;8.00;;
3443;SDS011;1736;52.068;6.968;2023-08-01T04:21:54;15.90;;;8.43;;
3443;SDS011;1736;52.068;6.968;2023-08-01T04:24:20;17.00;;;8.13;;
3443;SDS011;1736;52.068;6.968;2023-08-01T04:26:50;22.03;;;8.67;;
3443;SDS011;1736;52.068;6.968;2023-08-01T04:29:16;17.83;;;9.23;;
3443;SDS011;1736;52.068;6.968;2023-08-01T04:31:44;16.93;;;9.67;;
3443;SDS011;1736;52.068;6.968;2023-08-01T04:34:11;17.00;;;9.90;;
3443;SDS011;1736;52.068;6.968;2023-08-01T04:36:38;24.20;;;10.40;;
3443;SDS011;1736;52.068;6.968;2023-08-01T04:39:04;39.30;;;11.67;;
3443;SDS011;1736;52.068;6.968;2023-08-01T04:41:31;16.90;;;10.70;;
3443;SDS011;1736;52.068;6.968;2023-08-01T04:43:57;16.43;;;10.17;;
3443;SDS011;1736;52.068;6.968;2023-08-01T04:46:24;19.63;;;11.37;;
3443;SDS011;1736;52.068;6.968;2023-08-01T04:48:52;23.50;;;11.63;;
3443;SDS011;1736;52.068;6.968;2023-08-01T04:51:18;23.37;;;12.40;;
3443;SDS011;1736;52.068;6.968;2023-08-01T04:53:45;26.73;;;11.63;;
3443;SDS011;1736;52.068;6.968;2023-08-01T04:56:11;20.37;;;10.53;;
3443;SDS011;1736;52.068;6.968;2023-08-01T04:58:38;21.60;;;10.37;;
3443;SDS011;1736;52.068;6.968;2023-08-01T05:01:05;20.20;;;11.47;;
3443;SDS011;1736;52.068;6.968;2023-08-01T05:03:31;20.73;;;10.53;;
3443;SDS011;1736;52.068;6.968;2023-08-01T05:05:59;21.27;;;11.50;;
3443;SDS011;1736;52.068;6.968;2023-08-01T05:08:26;21.50;;;11.07;;
3443;SDS011;1736;52.068;6.968;2023-08-01T05:10:52;20.43;;;11.53;;
3443;SDS011;1736;52.068;6.968;2023-08-01T05:13:19;23.93;;;11.50;;
3443;SDS011;1736;52.068;6.968;2023-08-01T05:15:46;24.70;;;12.47;;
3443;SDS011;1736;52.068;6.968;2023-08-01T05:18:13;19.70;;;11.13;;
3443;SDS011;1736;52.068;6.968;2023-08-01T05:20:40;21.93;;;10.80;;
3443;SDS011;1736;52.068;6.968;2023-08-01T05:23:08;16.03;;;9.00;;
3443;SDS011;1736;52.068;6.968;2023-08-01T05:25:35;16.60;;;8.00;;
3443;SDS011;1736;52.068;6.968;2023-08-01T05:28:02;16.93;;;8.60;;
3443;SDS011;1736;52.068;6.968;2023-08-01T05:30:28;20.70;;;9.60;;
3443;SDS011;1736;52.068;6.968;2023-08-01T05:32:55;14.43;;;9.33;;
3443;SDS011;1736;52.068;6.968;2023-08-01T05:35:22;12.73;;;7.10;;
3443;SDS011;1736;52.068;6.968;2023-08-01T05:37:48;8.90;;;6.13;;
3443;SDS011;1736;52.068;6.968;2023-08-01T05:40:16;10.13;;;5.70;;
3443;SDS011;1736;52.068;6.968;2023-08-01T05:42:43;6.40;;;5.17;;
3443;SDS011;1736;52.068;6.968;2023-08-01T05:45:10;10.43;;;5.97;;
3443;SDS011;1736;52.068;6.968;2023-08-01T05:47:37;10.17;;;5.60;;
3443;SDS011;1736;52.068;6.968;2023-08-01T05:50:05;9.20;;;6.00;;
3443;SDS011;1736;52.068;6.968;2023-08-01T05:52:32;9.33;;;5.73;;
3443;SDS011;1736;52.068;6.968;2023-08-01T05:54:59;8.00;;;5.53;;
3443;SDS011;1736;52.068;6.968;2023-08-01T05:57:27;10.80;;;6.23;;
3443;SDS011;1736;52.068;6.968;2023-08-01T05:59:54;6.37;;;5.00;;
3443;SDS011;1736;52.068;6.968;2023-08-01T06:02:20;6.10;;;5.50;;
3443;SDS011;1736;52.068;6.968;2023-08-01T06:04:47;9.47;;;5.20;;
3443;SDS011;1736;52.068;6.968;2023-08-01T06:07:14;7.40;;;5.80;;
3443;SDS011;1736;52.068;6.968;2023-08-01T06:09:40;13.97;;;7.17;;
3443;SDS011;1736;52.068;6.968;2023-08-01T06:12:07;10.33;;;6.63;;
3443;SDS011;1736;52.068;6.968;2023-08-01T06:14:35;10.27;;;7.20;;
3443;SDS011;1736;52.068;6.968;2023-08-01T06:17:02;12.60;;;6.80;;
3443;SDS011;1736;52.068;6.968;2023-08-01T06:19:28;12.67;;;6.80;;
3443;SDS011;1736;52.068;6.968;2023-08-01T06:21:55;9.97;;;6.50;;
3443;SDS011;1736;52.068;6.968;2023-08-01T06:24:22;9.50;;;6.47;;
3443;SDS011;1736;52.068;6.968;2023-08-01T06:26:48;7.40;;;5.70;;
3443;SDS011;1736;52.068;6.968;2023-08-01T06:29:15;9.90;;;6.30;;
3443;SDS011;1736;52.068;6.968;2023-08-01T06:31:43;7.67;;;5.87;;
3443;SDS011;1736;52.068;6.968;2023-08-01T06:34:10;13.57;;;6.60;;
3443;SDS011;1736;52.068;6.968;2023-08-01T06:36:36;13.17;;;6.73;;
3443;SDS011;1736;52.068;6.968;2023-08-01T06:39:03;13.33;;;7.83;;
3443;SDS011;1736;52.068;6.968;2023-08-01T06:41:30;14.20;;;7.70;;
3443;SDS011;1736;52.068;6.968;2023-08-01T06:43:57;17.33;;;9.20;;
3443;SDS011;1736;52.068;6.968;2023-08-01T06:46:24;16.90;;;9.07;;
3443;SDS011;1736;52.068;6.968;2023-08-01T06:48:52;16.43;;;8.80;;
3443;SDS011;1736;52.068;6.968;2023-08-01T06:51:18;18.97;;;9.50;;
3443;SDS011;1736;52.068;6.968;2023-08-01T06:53:45;15.23;;;9.57;;
3443;SDS011;1736;52.068;6.968;2023-08-01T06:56:11;21.53;;;9.30;;
3443;SDS011;1736;52.068;6.968;2023-08-01T06:58:38;19.87;;;9.17;;
3443;SDS011;1736;52.068;6.968;2023-08-01T07:01:04;17.00;;;8.43;;
3443;SDS011;1736;52.068;6.968;2023-08-01T07:03:31;16.13;;;7.80;;
3443;SDS011;1736;52.068;6.968;2023-08-01T07:06:00;12.93;;;7.07;;
3443;SDS011;1736;52.068;6.968;2023-08-01T07:08:27;11.80;;;6.40;;
3443;SDS011;1736;52.068;6.968;2023-08-01T07:10:53;12.27;;;6.10;;
3443;SDS011;1736;52.068;6.968;2023-08-01T07:13:20;18.47;;;7.03;;
3443;SDS011;1736;52.068;6.968;2023-08-01T07:15:47;17.40;;;6.47;;
3443;SDS011;1736;52.068;6.968;2023-08-01T07:18:14;12.77;;;7.10;;
3443;SDS011;1736;52.068;6.968;2023-08-01T07:20:42;13.53;;;6.93;;
3443;SDS011;1736;52.068;6.968;2023-08-01T07:23:10;14.70;;;6.93;;
3443;SDS011;1736;52.068;6.968;2023-08-01T07:25:37;15.77;;;7.60;;
3443;SDS011;1736;52.068;6.968;2023-08-01T07:28:03;11.60;;;7.37;;
3443;SDS011;1736;52.068;6.968;2023-08-01T07:30:30;15.07;;;7.57;;
3443;SDS011;1736;52.068;6.968;2023-08-01T07:32:57;10.80;;;6.70;;
3443;SDS011;1736;52.068;6.968;2023-08-01T07:35:23;11.73;;;7.73;;
3443;SDS011;1736;52.068;6.968;2023-08-01T07:37:50;13.70;;;7.43;;
3443;SDS011;1736;52.068;6.968;2023-08-01T07:40:18;16.33;;;7.60;;
3443;SDS011;1736;52.068;6.968;2023-08-01T07:42:45;17.27;;;8.80;;
3443;SDS011;1736;52.068;6.968;2023-08-01T07:45:11;12.97;;;6.83;;
3443;SDS011;1736;52.068;6.968;2023-08-01T07:47:38;10.73;;;5.63;;
3443;SDS011;1736;52.068;6.968;2023-08-01T07:50:05;13.10;;;6.60;;
3443;SDS011;1736;52.068;6.968;2023-08-01T07:52:32;12.07;;;6.73;;
3443;SDS011;1736;52.068;6.968;2023-08-01T07:54:59;9.20;;;5.33;;
3443;SDS011;1736;52.068;6.968;2023-08-01T07:57:27;12.93;;;6.07;;
3443;SDS011;1736;52.068;6.968;2023-08-01T07:59:53;12.20;;;6.17;;
3443;SDS011;1736;52.068;6.968;2023-08-01T08:02:20;8.33;;;5.67;;
3443;SDS011;1736;52.068;6.968;2023-08-01T08:04:47;11.27;;;6.27;;
3443;SDS011;1736;52.068;6.968;2023-08-01T08:07:13;13.40;;;6.60;;
3443;SDS011;1736;52.068;6.968;2023-08-01T08:09:40;10.87;;;6.67;;
3443;SDS011;1736;52.068;6.968;2023-08-01T08:12:07;8.77;;;6.00;;
3443;SDS011;1736;52.068;6.968;2023-08-01T08:14:35;12.77;;;6.50;;
3443;SDS011;1736;52.068;6.968;2023-08-01T08:17:03;10.00;;;5.80;;
3443;SDS011;1736;52.068;6.968;2023-08-01T08:19:30;11.87;;;6.90;;
3443;SDS011;1736;52.068;6.968;2023-08-01T08:21:57;11.97;;;6.20;;
3443;SDS011;1736;52.068;6.968;2023-08-01T08:24:23;9.73;;;5.60;;
3443;SDS011;1736;52.068;6.968;2023-08-01T08:26:50;12.27;;;5.93;;
3443;SDS011;1736;52.068;6.968;2023-08-01T08:29:16;9.43;;;5.50;;
3443;SDS011;1736;52.068;6.968;2023-08-01T08:31:44;8.90;;;5.43;;
3443;SDS011;1736;52.068;6.968;2023-08-01T08:34:11;7.73;;;5.10;;
3443;SDS011;1736;52.068;6.968;2023-08-01T08:36:38;7.53;;;5.10;;
3443;SDS011;1736;52.068;6.968;2023-08-01T08:39:04;6.73;;;4.43;;
3443;SDS011;1736;52.068;6.968;2023-08-01T08:41:33;8.93;;;4.40;;
3443;SDS011;1736;52.068;6.968;2023-08-01T08:44:05;8.20;;;3.70;;
3443;SDS011;1736;52.068;6.968;2023-08-01T08:46:34;18.20;;;4.93;;
3443;SDS011;1736;52.068;6.968;2023-08-01T08:49:09;8.60;;;4.40;;
3443;SDS011;1736;52.068;6.968;2023-08-01T08:51:36;7.03;;;4.10;;
3443;SDS011;1736;52.068;6.968;2023-08-01T08:54:04;6.83;;;4.13;;
3443;SDS011;1736;52.068;6.968;2023-08-01T08:56:32;12.50;;;4.33;;
3443;SDS011;1736;52.068;6.968;2023-08-01T08:58:59;5.13;;;3.87;;
3443;SDS011;1736;52.068;6.968;2023-08-01T09:01:26;10.03;;;4.47;;
3443;SDS011;1736;52.068;6.968;2023-08-01T09:03:53;8.33;;;3.50;;
3443;SDS011;1736;52.068;6.968;2023-08-01T09:06:24;9.00;;;3.87;;
3443;SDS011;1736;52.068;6.968;2023-08-01T09:08:55;8.10;;;4.27;;
3443;SDS011;1736;52.068;6.968;2023-08-01T09:11:27;11.03;;;4.40;;
3443;SDS011;1736;52.068;6.968;2023-08-01T09:13:54;7.83;;;3.60;;
3443;SDS011;1736;52.068;6.968;2023-08-01T09:16:21;7.00;;;3.30;;
3443;SDS011;1736;52.068;6.968;2023-08-01T09:18:48;6.23;;;3.20;;
3443;SDS011;1736;52.068;6.968;2023-08-01T09:21:17;8.00;;;3.27;;
3443;SDS011;1736;52.068;6.968;2023-08-01T09:23:45;7.87;;;4.07;;
3443;SDS011;1736;52.068;6.968;2023-08-01T09:26:12;5.23;;;2.80;;
3443;SDS011;1736;52.068;6.968;2023-08-01T09:28:39;5.80;;;3.60;;
3443;SDS011;1736;52.068;6.968;2023-08-01T09:31:06;6.83;;;3.60;;
3443;SDS011;1736;52.068;6.968;2023-08-01T09:33:37;4.87;;;3.57;;
3443;SDS011;1736;52.068;6.968;2023-08-01T09:36:05;7.60;;;3.63;;
3443;SDS011;1736;52.068;6.968;2023-08-01T09:38:33;9.03;;;3.43;;
3443;SDS011;1736;52.068;6.968;2023-08-01T09:41:02;6.67;;;3.60;;
3443;SDS011;1736;52.068;6.968;2023-08-01T09:43:32;6.40;;;3.47;;
3443;SDS011;1736;52.068;6.968;2023-08-01T09:45:59;13.27;;;4.30;;
3443;SDS011;1736;52.068;6.968;2023-08-01T09:48:27;7.03;;;3.70;;
3443;SDS011;1736;52.068;6.968;2023-08-01T09:51:04;8.90;;;4.03;;
3443;SDS011;1736;52.068;6.968;2023-08-01T09:53:31;7.63;;;3.70;;
3443;SDS011;1736;52.068;6.968;2023-08-01T09:55:59;6.70;;;4.20;;
3443;SDS011;1736;52.068;6.968;2023-08-01T09:58:28;7.90;;;4.23;;
3443;SDS011;1736;52.068;6.968;2023-08-01T10:00:59;9.03;;;4.50;;
3443;SDS011;1736;52.068;6.968;2023-08-01T10:03:27;8.83;;;5.10;;
3443;SDS011;1736;52.068;6.968;2023-08-01T10:05:55;9.60;;;4.77;;
3443;SDS011;1736;52.068;6.968;2023-08-01T10:08:22;13.60;;;5.17;;
3443;SDS011;1736;52.068;6.968;2023-08-01T10:10:49;15.67;;;5.33;;
3443;SDS011;1736;52.068;6.968;2023-08-01T10:13:16;9.60;;;4.50;;
3443;SDS011;1736;52.068;6.968;2023-08-01T10:15:48;9.13;;;4.10;;
3443;SDS011;1736;52.068;6.968;2023-08-01T10:18:16;7.60;;;3.90;;
3443;SDS011;1736;52.068;6.968;2023-08-01T10:20:44;7.50;;;4.30;;
3443;SDS011;1736;52.068;6.968;2023-08-01T10:23:13;13.97;;;4.27;;
3443;SDS011;1736;52.068;6.968;2023-08-01T10:25:40;8.13;;;4.73;;
3443;SDS011;1736;52.068;6.968;2023-08-01T10:28:09;7.90;;;4.70;;
3443;SDS011;1736;52.068;6.968;2023-08-01T10:30:35;6.33;;;4.60;;
3443;SDS011;1736;52.068;6.968;2023-08-01T10:33:03;8.80;;;4.57;;
3443;SDS011;1736;52.068;6.968;2023-08-01T10:35:33;10.40;;;4.83;;
3443;SDS011;1736;52.068;6.968;2023-08-01T10:38:05;12.07;;;5.23;;
3443;SDS011;1736;52.068;6.968;2023-08-01T10:40:33;7.73;;;4.90;;
3443;SDS011;1736;52.068;6.968;2023-08-01T10:43:00;7.87;;;4.80;;
3443;SDS011;1736;52.068;6.968;2023-08-01T10:45:27;9.23;;;5.10;;
3443;SDS011;1736;52.068;6.968;2023-08-01T10:47:54;10.43;;;4.70;;
3443;SDS011;1736;52.068;6.968;2023-08-01T10:50:34;8.97;;;4.90;;
3443;SDS011;1736;52.068;6.968;2023-08-01T10:53:02;10.13;;;4.40;;
3443;SDS011;1736;52.068;6.968;2023-08-01T10:58:18;8.93;;;4.47;;
3443;SDS011;1736;52.068;6.968;2023-08-01T11:00:45;10.00;;;4.33;;
3443;SDS011;1736;52.068;6.968;2023-08-01T11:03:13;8.00;;;3.87;;
3443;SDS011;1736;52.068;6.968;2023-08-01T11:05:40;8.30;;;4.10;;
3443;SDS011;1736;52.068;6.968;2023-08-01T11:08:07;8.37;;;3.87;;
3443;SDS011;1736;52.068;6.968;2023-08-01T11:10:33;14.13;;;3.67;;
3443;SDS011;1736;52.068;6.968;2023-08-01T11:13:00;5.40;;;2.43;;
3443;SDS011;1736;52.068;6.968;2023-08-01T11:15:27;9.30;;;2.70;;
3443;SDS011;1736;52.068;6.968;2023-08-01T11:17:54;2.37;;;2.17;;
3443;SDS011;1736;52.068;6.968;2023-08-01T11:20:23;5.30;;;2.40;;
3443;SDS011;1736;52.068;6.968;2023-08-01T11:22:52;2.30;;;2.20;;
3443;SDS011;1736;52.068;6.968;2023-08-01T11:25:20;3.80;;;2.47;;
3443;SDS011;1736;52.068;6.968;2023-08-01T11:28:00;3.90;;;3.20;;
3443;SDS011;1736;52.068;6.968;2023-08-01T11:30:32;3.70;;;2.20;;
3443;SDS011;1736;52.068;6.968;2023-08-01T11:32:59;5.70;;;2.73;;
3443;SDS011;1736;52.068;6.968;2023-08-01T11:35:28;6.63;;;3.23;;
3443;SDS011;1736;52.068;6.968;2023-08-01T11:37:55;4.50;;;3.17;;
3443;SDS011;1736;52.068;6.968;2023-08-01T11:40:23;10.70;;;5.60;;
3443;SDS011;1736;52.068;6.968;2023-08-01T11:42:51;4.87;;;3.70;;
3443;SDS011;1736;52.068;6.968;2023-08-01T11:45:22;7.27;;;4.10;;
3443;SDS011;1736;52.068;6.968;2023-08-01T11:47:49;9.33;;;3.10;;
3443;SDS011;1736;52.068;6.968;2023-08-01T11:50:20;5.17;;;3.60;;
3443;SDS011;1736;52.068;6.968;2023-08-01T11:52:49;8.37;;;4.20;;
3443;SDS011;1736;52.068;6.968;2023-08-01T11:55:20;5.57;;;3.20;;
3443;SDS011;1736;52.068;6.968;2023-08-01T11:57:52;4.50;;;2.83;;
3443;SDS011;1736;52.068;6.968;2023-08-01T12:00:22;4.60;;;3.00;;
3443;SDS011;1736;52.068;6.968;2023-08-01T12:02:50;11.23;;;3.00;;
3443;SDS011;1736;52.068;6.968;2023-08-01T12:05:23;8.57;;;2.90;;
3443;SDS011;1736;52.068;6.968;2023-08-01T12:07:51;5.67;;;3.00;;
3443;SDS011;1736;52.068;6.968;2023-08-01T12:10:18;8.77;;;3.10;;
3443;SDS011;1736;52.068;6.968;2023-08-01T12:12:45;4.83;;;3.30;;
3443;SDS011;1736;52.068;6.968;2023-08-01T12:15:13;5.43;;;2.90;;
3443;SDS011;1736;52.068;6.968;2023-08-01T12:17:40;9.73;;;3.30;;
3443;SDS011;1736;52.068;6.968;2023-08-01T12:20:07;3.93;;;3.00;;
3443;SDS011;1736;52.068;6.968;2023-08-01T12:22:35;20.33;;;3.40;;
3443;SDS011;1736;52.068;6.968;2023-08-01T12:25:03;5.77;;;3.20;;
3443;SDS011;1736;52.068;6.968;2023-08-01T12:27:30;5.17;;;3.27;;
3443;SDS011;1736;52.068;6.968;2023-08-01T12:29:56;3.60;;;2.67;;
3443;SDS011;1736;52.068;6.968;2023-08-01T12:32:23;6.83;;;3.13;;
3443;SDS011;1736;52.068;6.968;2023-08-01T12:34:50;8.10;;;3.37;;
3443;SDS011;1736;52.068;6.968;2023-08-01T12:37:16;5.47;;;2.40;;
3443;SDS011;1736;52.068;6.968;2023-08-01T12:39:43;6.77;;;2.90;;
3443;SDS011;1736;52.068;6.968;2023-08-01T12:42:11;5.67;;;2.70;;
3443;SDS011;1736;52.068;6.968;2023-08-01T12:44:37;7.93;;;2.90;;
3443;SDS011;1736;52.068;6.968;2023-08-01T12:47:04;3.67;;;2.63;;
3443;SDS011;1736;52.068;6.968;2023-08-01T12:49:32;6.00;;;2.17;;
3443;SDS011;1736;52.068;6.968;2023-08-01T12:51:59;2.47;;;2.30;;
3443;SDS011;1736;52.068;6.968;2023-08-01T12:54:26;6.43;;;2.33;;
3443;SDS011;1736;52.068;6.968;2023-08-01T12:56:52;5.63;;;2.47;;
3443;SDS011;1736;52.068;6.968;2023-08-01T12:59:20;3.80;;;2.60;;
3443;SDS011;1736;52.068;6.968;2023-08-01T13:01:47;3.47;;;2.53;;
3443;SDS011;1736;52.068;6.968;2023-08-01T13:04:14;4.17;;;2.50;;
3443;SDS011;1736;52.068;6.968;2023-08-01T13:06:41;4.77;;;2.40;;
3443;SDS011;1736;52.068;6.968;2023-08-01T13:09:07;7.23;;;2.73;;
3443;SDS011;1736;52.068;6.968;2023-08-01T13:11:34;3.50;;;1.93;;
3443;SDS011;1736;52.068;6.968;2023-08-01T13:14:01;5.93;;;2.40;;
3443;SDS011;1736;52.068;6.968;2023-08-01T13:16:30;6.13;;;2.17;;
3443;SDS011;1736;52.068;6.968;2023-08-01T13:18:56;2.50;;;2.10;;
3443;SDS011;1736;52.068;6.968;2023-08-01T13:21:23;2.47;;;2.00;;
3443;SDS011;1736;52.068;6.968;2023-08-01T13:23:50;5.30;;;2.40;;
3443;SDS011;1736;52.068;6.968;2023-08-01T13:26:16;2.97;;;1.83;;
3443;SDS011;1736;52.068;6.968;2023-08-01T13:28:43;3.57;;;2.00;;
3443;SDS011;1736;52.068;6.968;2023-08-01T13:31:09;4.70;;;1.80;;
3443;SDS011;1736;52.068;6.968;2023-08-01T13:33:37;6.00;;;2.20;;
3443;SDS011;1736;52.068;6.968;2023-08-01T13:36:04;4.80;;;2.30;;
3443;SDS011;1736;52.068;6.968;2023-08-01T13:38:31;2.13;;;1.93;;
3443;SDS011;1736;52.068;6.968;2023-08-01T13:40:58;5.33;;;1.87;;
3443;SDS011;1736;52.068;6.968;2023-08-01T13:43:25;5.67;;;2.10;;
3443;SDS011;1736;52.068;6.968;2023-08-01T13:45:52;6.00;;;2.07;;
3443;SDS011;1736;52.068;6.968;2023-08-01T13:48:19;3.87;;;2.50;;
3443;SDS011;1736;52.068;6.968;2023-08-01T13:50:47;3.97;;;2.60;;
3443;SDS011;1736;52.068;6.968;2023-08-01T13:53:14;4.17;;;3.00;;
3443;SDS011;1736;52.068;6.968;2023-08-01T13:55:41;3.20;;;2.57;;
3443;SDS011;1736;52.068;6.968;2023-08-01T13:58:07;6.13;;;2.37;;
3443;SDS011;1736;52.068;6.968;2023-08-01T14:00:34;3.03;;;2.03;;
3443;SDS011;1736;52.068;6.968;2023-08-01T14:03:01;2.70;;;2.27;;
3443;SDS011;1736;52.068;6.968;2023-08-01T14:05:28;5.37;;;2.57;;
3443;SDS011;1736;52.068;6.968;2023-08-01T14:07:56;7.83;;;2.00;;
3443;SDS011;1736;52.068;6.968;2023-08-01T14:10:24;5.60;;;2.60;;
3443;SDS011;1736;52.068;6.968;2023-08-01T14:12:51;7.80;;;3.40;;
3443;SDS011;1736;52.068;6.968;2023-08-01T14:15:18;13.53;;;5.00;;
3443;SDS011;1736;52.068;6.968;2023-08-01T14:17:45;6.60;;;2.73;;
3443;SDS011;1736;52.068;6.968;2023-08-01T14:20:11;8.03;;;2.07;;
3443;SDS011;1736;52.068;6.968;2023-08-01T14:22:38;3.97;;;2.00;;
3443;SDS011;1736;52.068;6.968;2023-08-01T14:25:08;9.70;;;2.57;;
3443;SDS011;1736;52.068;6.968;2023-08-01T14:27:35;2.40;;;1.90;;
3443;SDS011;1736;52.068;6.968;2023-08-01T14:30:02;6.90;;;2.57;;
3443;SDS011;1736;52.068;6.968;2023-08-01T14:32:30;3.53;;;2.40;;
3443;SDS011;1736;52.068;6.968;2023-08-01T14:34:57;4.90;;;2.40;;
3443;SDS011;1736;52.068;6.968;2023-08-01T14:37:24;4.50;;;2.70;;
3443;SDS011;1736;52.068;6.968;2023-08-01T14:39:51;4.10;;;2.37;;
3443;SDS011;1736;52.068;6.968;2023-08-01T14:42:19;6.50;;;2.40;;
3443;SDS011;1736;52.068;6.968;2023-08-01T14:44:50;4.93;;;2.70;;
3443;SDS011;1736;52.068;6.968;2023-08-01T14:47:17;3.63;;;2.23;;
3443;SDS011;1736;52.068;6.968;2023-08-01T14:49:44;2.90;;;2.23;;
3443;SDS011;1736;52.068;6.968;2023-08-01T14:52:11;7.33;;;2.83;;
3443;SDS011;1736;52.068;6.968;2023-08-01T14:54:38;4.27;;;2.20;;
3443;SDS011;1736;52.068;6.968;2023-08-01T14:57:04;9.20;;;2.50;;
3443;SDS011;1736;52.068;6.968;2023-08-01T14:59:32;5.23;;;2.77;;
3443;SDS011;1736;52.068;6.968;2023-08-01T15:01:59;6.30;;;2.53;;
3443;SDS011;1736;52.068;6.968;2023-08-01T15:04:25;5.63;;;2.20;;
3443;SDS011;1736;52.068;6.968;2023-08-01T15:06:52;5.30;;;2.30;;
3443;SDS011;1736;52.068;6.968;2023-08-01T15:09:19;3.60;;;2.30;;
3443;SDS011;1736;52.068;6.968;2023-08-01T15:11:46;6.00;;;2.50;;